Time;durP1;ratioP1;P1;durP2;ratioP2;P2;SDS_P1;SDS_P2;PMS_P1;PMS_P2;Temp;Humidity;BMP_temperature;BMP_pressure;BME280_temperature;BME280_humidity;BME280_pressure;Samples;Min_cycle;Max_cycle;Signal;HPM_P1;HPM_P2
2022/12/25 00:00:26;;;;;;;9.20;6.27;;;;;;;;;;4945912;29;20486;-72
2022/12/25 00:03:17;;;;;;;12.37;6.67;;;;;;;;;;4954466;29;20989;-72
2022/12/25 00:06:11;;;;;;;13.00;6.57;;;;;;;;;;4946181;29;20467;-72
2022/12/25 00:09:03;;;;;;;10.73;6.90;;;;;;;;;;4951238;29;20475;-72
2022/12/25 00:11:51;;;;;;;9.77;6.70;;;;;;;;;;4945464;29;20449;-72
2022/12/25 00:14:40;;;;;;;9.17;6.50;;;;;;;;;;4947625;29;20491;-73
2022/12/25 00:17:32;;;;;;;7.27;5.70;;;;;;;;;;4946543;28;20452;-71
2022/12/25 00:20:26;;;;;;;9.17;6.27;;;;;;;;;;4959883;29;20475;-72
2022/12/25 00:23:16;;;;;;;8.90;6.40;;;;;;;;;;4963206;28;20450;-72
2022/12/25 00:26:07;;;;;;;8.80;6.50;;;;;;;;;;4966189;28;20479;-72
2022/12/25 00:28:59;;;;;;;10.53;5.80;;;;;;;;;;4963727;29;20484;-72
2022/12/25 00:31:57;;;;;;;8.80;6.47;;;;;;;;;;4968398;28;20448;-72
2022/12/25 00:34:50;;;;;;;10.70;6.20;;;;;;;;;;4959053;28;20530;-72
2022/12/25 00:37:39;;;;;;;10.70;6.53;;;;;;;;;;4955260;28;20447;-72
2022/12/25 00:40:29;;;;;;;8.37;6.50;;;;;;;;;;4955961;29;20454;-72
2022/12/25 00:43:19;;;;;;;10.00;6.73;;;;;;;;;;4955002;29;20966;-71
2022/12/25 00:46:13;;;;;;;11.20;6.13;;;;;;;;;;4945061;28;20459;-72
2022/12/25 00:49:10;;;;;;;9.30;5.77;;;;;;;;;;4950108;28;20555;-71
2022/12/25 00:52:13;;;;;;;9.90;6.97;;;;;;;;;;4953511;28;20500;-72
2022/12/25 00:55:03;;;;;;;8.70;6.33;;;;;;;;;;4941469;29;20477;-72
2022/12/25 00:57:54;;;;;;;8.97;6.40;;;;;;;;;;4949796;28;20568;-71
2022/12/25 01:00:44;;;;;;;8.13;7.33;;;;;;;;;;4946009;28;20447;-71
2022/12/25 01:03:32;;;;;;;8.53;6.70;;;;;;;;;;4947414;28;20610;-72
2022/12/25 01:06:27;;;;;;;10.53;6.77;;;;;;;;;;4949007;28;20967;-71
2022/12/25 01:12:29;;;;;;;9.80;6.27;;;;;;;;;;4945923;28;21034;-72
2022/12/25 01:15:25;;;;;;;9.43;6.70;;;;;;;;;;4953784;28;20493;-72
2022/12/25 01:18:16;;;;;;;7.87;6.00;;;;;;;;;;4953126;28;20475;-72
2022/12/25 01:21:10;;;;;;;13.10;7.93;;;;;;;;;;4946662;28;20460;-72
2022/12/25 01:24:09;;;;;;;8.50;6.27;;;;;;;;;;4949332;28;20491;-71
2022/12/25 01:26:59;;;;;;;10.67;6.70;;;;;;;;;;4940142;29;20800;-72
2022/12/25 01:29:56;;;;;;;9.60;6.57;;;;;;;;;;4950095;28;20486;-72
2022/12/25 01:32:44;;;;;;;10.67;7.00;;;;;;;;;;4952457;29;20447;-70
2022/12/25 01:35:33;;;;;;;10.87;7.23;;;;;;;;;;4941181;28;20475;-71
2022/12/25 01:38:27;;;;;;;10.17;6.87;;;;;;;;;;4948571;28;20856;-72
2022/12/25 01:41:22;;;;;;;11.87;8.90;;;;;;;;;;4941359;28;20463;-72
2022/12/25 01:44:31;;;;;;;10.70;7.77;;;;;;;;;;4949970;28;20537;-71
2022/12/25 01:47:25;;;;;;;9.10;6.80;;;;;;;;;;4944214;29;20447;-71
2022/12/25 01:50:19;;;;;;;11.50;8.00;;;;;;;;;;4942439;29;20511;-72
2022/12/25 01:53:11;;;;;;;14.80;7.97;;;;;;;;;;4942157;28;20835;-72
2022/12/25 01:56:10;;;;;;;14.30;8.60;;;;;;;;;;4944458;29;20449;-71
2022/12/25 01:59:09;;;;;;;13.20;9.03;;;;;;;;;;4950840;29;20483;-71
2022/12/25 02:01:58;;;;;;;12.43;8.70;;;;;;;;;;4942786;28;20452;-71
2022/12/25 02:04:50;;;;;;;16.63;8.80;;;;;;;;;;4939234;28;20491;-72
2022/12/25 02:07:40;;;;;;;12.43;8.53;;;;;;;;;;4949099;28;20955;-72
2022/12/25 02:10:31;;;;;;;10.40;7.10;;;;;;;;;;4973025;23;20878;-74
2022/12/25 02:13:29;;;;;;;13.27;9.07;;;;;;;;;;4963695;28;20477;-75
2022/12/25 02:16:21;;;;;;;16.80;8.53;;;;;;;;;;4976132;28;20458;-73
2022/12/25 02:19:18;;;;;;;16.77;9.50;;;;;;;;;;4966109;28;20498;-74
2022/12/25 02:22:15;;;;;;;14.17;8.90;;;;;;;;;;4967971;28;20484;-74
2022/12/25 02:25:11;;;;;;;14.23;9.20;;;;;;;;;;4980826;28;20473;-74
2022/12/25 02:28:16;;;;;;;16.57;9.40;;;;;;;;;;4976490;28;20470;-73
2022/12/25 02:31:08;;;;;;;16.33;9.00;;;;;;;;;;4968809;28;20500;-74
2022/12/25 02:34:05;;;;;;;15.37;9.13;;;;;;;;;;4981880;28;20460;-73
2022/12/25 02:36:58;;;;;;;18.90;10.20;;;;;;;;;;4964567;28;20458;-74
2022/12/25 02:40:00;;;;;;;13.37;9.00;;;;;;;;;;4972207;28;20666;-74
2022/12/25 03:08:17;;;;;;;10.67;7.57;;;;;;;;;;4976875;28;20484;-76
2022/12/25 03:17:17;;;;;;;11.73;7.20;;;;;;;;;;4980994;28;20486;-74
2022/12/25 03:26:56;;;;;;;13.10;8.27;;;;;;;;;;4938595;29;20888;-74
2022/12/25 03:33:02;;;;;;;14.10;8.50;;;;;;;;;;4969522;28;20450;-74
2022/12/25 03:36:14;;;;;;;16.27;8.20;;;;;;;;;;4972643;28;20981;-74
2022/12/25 04:38:40;;;;;;;18.77;12.67;;;;;;;;;;4978866;28;20490;-74
2022/12/25 04:41:28;;;;;;;20.00;11.40;;;;;;;;;;4975684;28;20473;-74
2022/12/25 04:44:19;;;;;;;16.33;11.50;;;;;;;;;;4966046;28;20447;-73
2022/12/25 04:47:08;;;;;;;16.30;12.00;;;;;;;;;;4986198;28;20463;-74
2022/12/25 04:50:02;;;;;;;19.20;12.33;;;;;;;;;;4968649;28;20484;-76
2022/12/25 04:52:55;;;;;;;19.63;13.10;;;;;;;;;;4975268;28;20462;-74
2022/12/25 04:55:46;;;;;;;15.10;10.93;;;;;;;;;;4975909;28;20470;-73
2022/12/25 04:58:38;;;;;;;15.00;10.63;;;;;;;;;;4967167;28;20477;-73
2022/12/25 05:01:28;;;;;;;13.73;9.70;;;;;;;;;;4973746;28;20879;-76
2022/12/25 05:04:19;;;;;;;14.47;10.10;;;;;;;;;;4979050;28;20522;-73
2022/12/25 05:07:13;;;;;;;15.63;10.50;;;;;;;;;;4975664;28;20462;-74
2022/12/25 05:10:09;;;;;;;15.83;10.47;;;;;;;;;;4959142;28;20486;-74
2022/12/25 05:13:02;;;;;;;14.60;9.83;;;;;;;;;;4977675;28;20522;-73
2022/12/25 05:15:53;;;;;;;12.20;9.67;;;;;;;;;;4974371;28;20442;-74
2022/12/25 05:18:43;;;;;;;17.10;9.60;;;;;;;;;;4974660;28;20477;-74
2022/12/25 05:21:32;;;;;;;13.33;9.53;;;;;;;;;;4976988;28;20485;-74
2022/12/25 05:24:25;;;;;;;15.90;10.37;;;;;;;;;;4977200;28;20450;-74
2022/12/25 05:27:16;;;;;;;13.10;10.07;;;;;;;;;;4977292;28;20460;-74
2022/12/25 05:30:11;;;;;;;15.00;10.30;;;;;;;;;;4971482;28;20479;-73
2022/12/25 05:33:00;;;;;;;16.07;10.20;;;;;;;;;;4971355;28;20451;-74
2022/12/25 05:35:50;;;;;;;12.47;9.57;;;;;;;;;;4966308;28;20457;-75
2022/12/25 05:38:40;;;;;;;14.07;9.90;;;;;;;;;;4974435;28;20498;-74
2022/12/25 05:41:30;;;;;;;12.77;9.97;;;;;;;;;;4971235;28;20473;-74
2022/12/25 05:44:25;;;;;;;16.30;11.60;;;;;;;;;;4972996;28;20442;-74
2022/12/25 05:47:13;;;;;;;19.60;11.43;;;;;;;;;;4980577;28;20446;-73
2022/12/25 05:50:10;;;;;;;17.60;11.60;;;;;;;;;;4970677;28;20874;-77
2022/12/25 05:53:01;;;;;;;17.50;9.87;;;;;;;;;;4975584;28;20458;-74
2022/12/25 05:56:01;;;;;;;18.37;11.40;;;;;;;;;;4975668;28;20549;-73
2022/12/25 05:58:59;;;;;;;18.60;11.13;;;;;;;;;;4975218;28;20497;-75
2022/12/25 06:01:49;;;;;;;18.10;11.03;;;;;;;;;;4977276;28;20481;-73
2022/12/25 06:04:47;;;;;;;16.50;11.10;;;;;;;;;;4971335;28;20440;-74
2022/12/25 06:07:36;;;;;;;17.70;11.90;;;;;;;;;;4970203;28;20466;-74
2022/12/25 06:10:24;;;;;;;15.80;11.10;;;;;;;;;;4977338;28;20488;-77
2022/12/25 06:13:16;;;;;;;18.30;13.53;;;;;;;;;;4970376;28;20455;-73
2022/12/25 06:16:05;;;;;;;17.40;11.47;;;;;;;;;;4960758;28;20462;-76
2022/12/25 06:18:57;;;;;;;19.40;12.53;;;;;;;;;;4977165;28;20473;-74
2022/12/25 06:21:46;;;;;;;19.13;13.80;;;;;;;;;;4979270;28;20489;-73
2022/12/25 06:24:35;;;;;;;18.20;12.37;;;;;;;;;;4967062;28;20456;-75
2022/12/25 06:27:28;;;;;;;18.53;13.20;;;;;;;;;;4977497;28;20451;-74
2022/12/25 06:30:20;;;;;;;19.20;11.93;;;;;;;;;;4970929;28;20474;-75
2022/12/25 06:33:11;;;;;;;19.37;12.53;;;;;;;;;;4982004;28;20479;-73
2022/12/25 06:36:08;;;;;;;18.90;12.97;;;;;;;;;;4977563;28;20442;-74
2022/12/25 06:39:02;;;;;;;18.00;11.03;;;;;;;;;;4972450;28;20463;-74
2022/12/25 06:41:59;;;;;;;18.27;12.03;;;;;;;;;;4976867;28;20475;-74
2022/12/25 06:44:52;;;;;;;16.80;11.80;;;;;;;;;;4996599;28;20540;-74
2022/12/25 06:47:46;;;;;;;16.40;11.57;;;;;;;;;;4972574;28;20878;-73
2022/12/25 06:50:34;;;;;;;16.50;12.50;;;;;;;;;;4975547;28;20481;-76
2022/12/25 06:53:24;;;;;;;19.70;13.13;;;;;;;;;;4968629;28;20449;-73
2022/12/25 06:56:18;;;;;;;19.13;12.80;;;;;;;;;;4979430;28;20466;-74
2022/12/25 06:59:07;;;;;;;18.03;10.97;;;;;;;;;;4975878;28;20978;-74
2022/12/25 07:01:58;;;;;;;18.40;12.47;;;;;;;;;;4978860;28;20463;-74
2022/12/25 07:04:53;;;;;;;17.50;11.03;;;;;;;;;;4977246;28;20477;-74
2022/12/25 07:07:56;;;;;;;18.23;10.70;;;;;;;;;;4971833;28;20474;-74
2022/12/25 07:10:46;;;;;;;14.93;10.37;;;;;;;;;;4977502;28;20568;-74
2022/12/25 07:13:40;;;;;;;18.07;10.63;;;;;;;;;;4976836;28;20462;-74
2022/12/25 07:16:34;;;;;;;18.20;10.90;;;;;;;;;;4967820;28;20452;-73
2022/12/25 07:19:23;;;;;;;19.37;9.93;;;;;;;;;;4968479;28;20494;-74
2022/12/25 07:22:16;;;;;;;16.70;10.90;;;;;;;;;;4973769;28;20513;-76
2022/12/25 07:25:12;;;;;;;22.37;11.23;;;;;;;;;;4986165;28;20462;-74
2022/12/25 07:28:03;;;;;;;15.57;9.90;;;;;;;;;;4972282;28;20474;-75
2022/12/25 07:30:51;;;;;;;18.40;10.50;;;;;;;;;;4973664;28;21263;-74
2022/12/25 07:33:47;;;;;;;16.17;10.57;;;;;;;;;;4970923;28;20463;-74
2022/12/25 07:36:38;;;;;;;17.83;9.80;;;;;;;;;;4978294;28;20457;-74
2022/12/25 07:39:30;;;;;;;26.90;10.43;;;;;;;;;;4981432;28;21017;-74
2022/12/25 07:42:23;;;;;;;17.70;10.30;;;;;;;;;;4981410;28;20888;-74
2022/12/25 07:45:14;;;;;;;16.43;9.73;;;;;;;;;;4968645;28;20453;-74
2022/12/25 07:48:05;;;;;;;17.23;10.40;;;;;;;;;;4973970;28;20470;-74
2022/12/25 07:51:09;;;;;;;17.30;10.20;;;;;;;;;;4977389;28;20473;-74
2022/12/25 07:53:58;;;;;;;19.07;12.20;;;;;;;;;;4981612;28;20449;-75
2022/12/25 07:56:51;;;;;;;17.50;10.03;;;;;;;;;;4970654;28;21066;-74
2022/12/25 07:59:41;;;;;;;21.43;9.90;;;;;;;;;;4978091;28;20476;-75
2022/12/25 08:02:31;;;;;;;16.77;9.97;;;;;;;;;;4970080;28;20829;-74
2022/12/25 08:05:20;;;;;;;17.00;10.30;;;;;;;;;;4974729;28;20458;-74
2022/12/25 08:08:08;;;;;;;15.40;10.43;;;;;;;;;;4983011;28;20472;-75
2022/12/25 08:10:57;;;;;;;18.00;9.30;;;;;;;;;;4961790;28;20490;-74
2022/12/25 08:13:45;;;;;;;17.80;9.43;;;;;;;;;;4970362;28;21078;-75
2022/12/25 08:16:34;;;;;;;16.20;9.00;;;;;;;;;;4970306;28;20474;-75
2022/12/25 08:19:24;;;;;;;16.07;9.50;;;;;;;;;;4957252;28;20486;-74
2022/12/25 08:22:13;;;;;;;16.63;9.70;;;;;;;;;;4973410;28;20541;-74
2022/12/25 08:25:01;;;;;;;15.87;10.37;;;;;;;;;;4966479;28;20446;-74
2022/12/25 08:27:50;;;;;;;19.60;10.53;;;;;;;;;;4981331;28;21034;-75
2022/12/25 08:30:38;;;;;;;15.93;9.87;;;;;;;;;;4968634;28;20494;-74
2022/12/25 08:33:27;;;;;;;13.47;9.67;;;;;;;;;;4968649;28;20569;-75
2022/12/25 08:36:17;;;;;;;17.37;9.60;;;;;;;;;;4968889;28;20465;-74
2022/12/25 08:39:09;;;;;;;19.00;9.20;;;;;;;;;;4975266;23;20468;-74
2022/12/25 08:41:58;;;;;;;17.77;9.90;;;;;;;;;;4989167;28;20524;-74
2022/12/25 08:44:46;;;;;;;15.40;9.50;;;;;;;;;;4984543;28;20465;-74
2022/12/25 08:47:35;;;;;;;17.30;8.80;;;;;;;;;;4981780;28;20443;-72
2022/12/25 08:50:24;;;;;;;16.13;11.03;;;;;;;;;;4973981;28;20533;-74
2022/12/25 08:53:13;;;;;;;18.97;9.73;;;;;;;;;;4967000;28;21081;-73
2022/12/25 08:56:03;;;;;;;15.47;9.80;;;;;;;;;;4958916;28;20975;-73
2022/12/25 08:58:54;;;;;;;15.10;8.77;;;;;;;;;;4971076;28;20466;-73
2022/12/25 09:01:42;;;;;;;17.47;9.80;;;;;;;;;;4968283;28;20459;-74
2022/12/25 09:04:31;;;;;;;22.73;10.30;;;;;;;;;;4966245;28;20455;-74
2022/12/25 09:07:20;;;;;;;19.53;9.40;;;;;;;;;;4973070;28;20459;-73
2022/12/25 09:10:10;;;;;;;15.00;10.00;;;;;;;;;;4965317;28;20493;-73
2022/12/25 09:12:59;;;;;;;18.07;10.40;;;;;;;;;;4972277;28;21020;-74
2022/12/25 09:15:47;;;;;;;19.37;10.07;;;;;;;;;;4971806;28;20538;-73
2022/12/25 09:18:36;;;;;;;15.90;8.57;;;;;;;;;;4946604;28;20489;-74
2022/12/25 09:21:26;;;;;;;15.17;9.10;;;;;;;;;;4964280;28;20463;-73
2022/12/25 09:24:15;;;;;;;14.57;9.20;;;;;;;;;;4964257;28;20964;-74
2022/12/25 09:27:06;;;;;;;14.83;9.03;;;;;;;;;;4956497;28;20458;-73
2022/12/25 09:29:54;;;;;;;18.47;9.40;;;;;;;;;;4963817;28;20470;-73
2022/12/25 09:32:43;;;;;;;16.40;9.50;;;;;;;;;;4965341;28;20486;-74
2022/12/25 09:35:33;;;;;;;16.80;9.73;;;;;;;;;;4965593;28;20463;-74
2022/12/25 09:38:22;;;;;;;14.90;9.20;;;;;;;;;;4956909;28;20478;-74
2022/12/25 09:41:15;;;;;;;17.07;9.73;;;;;;;;;;4967292;28;20475;-74
2022/12/25 09:44:07;;;;;;;19.13;9.50;;;;;;;;;;4968386;28;20443;-74
2022/12/25 09:46:58;;;;;;;16.47;9.10;;;;;;;;;;4967453;28;20450;-74
2022/12/25 09:49:49;;;;;;;14.93;9.27;;;;;;;;;;4970067;28;20565;-74
2022/12/25 09:52:43;;;;;;;14.00;9.57;;;;;;;;;;4968545;28;20480;-73
2022/12/25 09:55:33;;;;;;;16.07;9.40;;;;;;;;;;4966352;28;20462;-73
2022/12/25 09:58:21;;;;;;;21.50;10.23;;;;;;;;;;4971139;28;20856;-73
2022/12/25 10:01:16;;;;;;;17.27;10.33;;;;;;;;;;4970928;28;20475;-73
2022/12/25 10:04:21;;;;;;;13.30;8.43;;;;;;;;;;4962878;28;20654;-73
2022/12/25 10:07:14;;;;;;;14.43;8.97;;;;;;;;;;4970262;28;20458;-73
2022/12/25 10:10:07;;;;;;;13.03;9.10;;;;;;;;;;4959969;28;20483;-73
2022/12/25 10:13:02;;;;;;;15.47;9.30;;;;;;;;;;4963156;28;20475;-74
2022/12/25 10:15:53;;;;;;;14.43;9.50;;;;;;;;;;4970354;28;20824;-74
2022/12/25 10:18:48;;;;;;;13.27;8.77;;;;;;;;;;4963640;28;20466;-74
2022/12/25 10:21:37;;;;;;;12.90;8.63;;;;;;;;;;4963370;28;20532;-74
2022/12/25 10:24:31;;;;;;;18.53;9.30;;;;;;;;;;4969952;28;20447;-74
2022/12/25 10:27:20;;;;;;;17.00;10.40;;;;;;;;;;4967738;28;20458;-74
2022/12/25 10:30:14;;;;;;;18.23;11.30;;;;;;;;;;4956490;28;20554;-74
2022/12/25 10:33:03;;;;;;;18.63;11.67;;;;;;;;;;4966895;28;20845;-74
2022/12/25 10:35:53;;;;;;;15.97;10.00;;;;;;;;;;4964150;28;20866;-74
2022/12/25 10:38:41;;;;;;;25.67;17.37;;;;;;;;;;4965783;28;20470;-74
2022/12/25 10:41:36;;;;;;;24.43;15.87;;;;;;;;;;4961214;28;21247;-74
2022/12/25 10:44:25;;;;;;;14.87;10.40;;;;;;;;;;4969363;28;20443;-74
2022/12/25 10:47:23;;;;;;;15.33;11.10;;;;;;;;;;4968821;28;20462;-74
2022/12/25 10:50:13;;;;;;;18.57;10.23;;;;;;;;;;4966549;28;21128;-74
2022/12/25 10:53:04;;;;;;;16.77;10.97;;;;;;;;;;4966386;28;20963;-74
2022/12/25 10:56:00;;;;;;;17.10;10.77;;;;;;;;;;4969969;28;20512;-74
2022/12/25 10:58:48;;;;;;;15.23;10.30;;;;;;;;;;4966878;28;20981;-74
2022/12/25 11:01:39;;;;;;;14.93;10.33;;;;;;;;;;4959767;28;20838;-74
2022/12/25 11:04:28;;;;;;;16.03;9.60;;;;;;;;;;4961959;28;20460;-74
2022/12/25 11:07:22;;;;;;;17.50;11.13;;;;;;;;;;4965916;28;20462;-74
2022/12/25 11:10:20;;;;;;;17.63;11.80;;;;;;;;;;4964485;28;20494;-74
2022/12/25 11:13:19;;;;;;;19.13;12.10;;;;;;;;;;4970696;28;20474;-74
2022/12/25 11:16:09;;;;;;;14.13;9.90;;;;;;;;;;4971663;28;20455;-73
2022/12/25 11:18:58;;;;;;;13.23;9.37;;;;;;;;;;4968527;28;20466;-74
2022/12/25 11:21:50;;;;;;;17.73;13.20;;;;;;;;;;4975852;28;20457;-74
2022/12/25 11:24:39;;;;;;;17.57;12.53;;;;;;;;;;4975864;28;20449;-74
2022/12/25 11:27:32;;;;;;;16.43;10.30;;;;;;;;;;4974447;28;20837;-74
2022/12/25 11:30:21;;;;;;;14.83;9.37;;;;;;;;;;4967894;28;20485;-74
2022/12/25 11:33:13;;;;;;;14.53;9.77;;;;;;;;;;4973748;28;20454;-74
2022/12/25 11:36:03;;;;;;;15.27;8.90;;;;;;;;;;4968058;28;20454;-74
2022/12/25 11:38:52;;;;;;;12.23;8.57;;;;;;;;;;4978237;28;20473;-74
2022/12/25 11:41:42;;;;;;;13.67;9.47;;;;;;;;;;4979822;28;20480;-74
2022/12/25 11:44:36;;;;;;;12.57;8.77;;;;;;;;;;4966314;28;20462;-74
2022/12/25 11:47:27;;;;;;;14.97;8.70;;;;;;;;;;4978782;28;20470;-74
2022/12/25 11:50:28;;;;;;;12.07;8.50;;;;;;;;;;4969284;28;20827;-74
2022/12/25 11:53:18;;;;;;;14.40;8.37;;;;;;;;;;4964928;28;20458;-74
2022/12/25 11:56:09;;;;;;;12.90;8.87;;;;;;;;;;4973454;28;20499;-74
2022/12/25 11:59:01;;;;;;;13.27;9.87;;;;;;;;;;4972343;28;20625;-74
2022/12/25 12:01:53;;;;;;;15.00;9.77;;;;;;;;;;4966868;28;20991;-74
2022/12/25 12:04:43;;;;;;;16.30;8.90;;;;;;;;;;4973026;28;20453;-74
2022/12/25 12:07:32;;;;;;;16.30;9.13;;;;;;;;;;4973248;28;20454;-74
2022/12/25 12:10:27;;;;;;;11.87;8.57;;;;;;;;;;4965531;28;20896;-74
2022/12/25 12:13:28;;;;;;;16.47;9.53;;;;;;;;;;4967270;28;20490;-74
2022/12/25 12:16:17;;;;;;;15.37;9.63;;;;;;;;;;4966454;28;20462;-74
2022/12/25 12:19:24;;;;;;;11.50;8.60;;;;;;;;;;4961710;28;20487;-74
2022/12/25 12:22:19;;;;;;;19.03;8.87;;;;;;;;;;4970859;28;20449;-73
2022/12/25 12:25:08;;;;;;;17.00;10.07;;;;;;;;;;4973905;28;20978;-74
2022/12/25 12:28:00;;;;;;;19.00;9.97;;;;;;;;;;4959712;28;20451;-74
2022/12/25 12:31:00;;;;;;;15.20;8.73;;;;;;;;;;4975364;28;20505;-74
2022/12/25 12:33:51;;;;;;;12.20;8.80;;;;;;;;;;4971166;28;20485;-74
2022/12/25 12:36:41;;;;;;;11.27;9.60;;;;;;;;;;4970877;28;20458;-74
2022/12/25 12:39:33;;;;;;;13.83;9.33;;;;;;;;;;4971291;28;20854;-74
2022/12/25 12:42:24;;;;;;;13.23;9.57;;;;;;;;;;4972249;28;20843;-74
2022/12/25 12:45:17;;;;;;;16.53;11.07;;;;;;;;;;4965651;28;20534;-74
2022/12/25 12:48:14;;;;;;;11.93;9.40;;;;;;;;;;4968719;28;20501;-74
2022/12/25 12:51:03;;;;;;;12.03;8.97;;;;;;;;;;4964539;28;20582;-74
2022/12/25 12:54:04;;;;;;;21.80;12.67;;;;;;;;;;4965633;28;20455;-74
2022/12/25 12:56:56;;;;;;;20.30;13.07;;;;;;;;;;4965690;28;20467;-74
2022/12/25 12:59:45;;;;;;;18.83;11.00;;;;;;;;;;4967962;28;20481;-74
2022/12/25 13:02:44;;;;;;;18.10;12.87;;;;;;;;;;4966516;28;20966;-74
2022/12/25 13:05:37;;;;;;;12.70;9.20;;;;;;;;;;4970099;28;21040;-74
2022/12/25 13:08:32;;;;;;;17.03;10.40;;;;;;;;;;4959572;28;20820;-74
2022/12/25 13:11:23;;;;;;;16.77;9.17;;;;;;;;;;4965281;28;20460;-74
2022/12/25 13:14:15;;;;;;;12.63;9.30;;;;;;;;;;4963658;28;20476;-74
2022/12/25 13:17:07;;;;;;;11.50;8.77;;;;;;;;;;4973387;28;20827;-74
2022/12/25 13:19:57;;;;;;;18.93;11.90;;;;;;;;;;4970526;28;20496;-74
2022/12/25 13:22:48;;;;;;;16.63;10.40;;;;;;;;;;4972989;28;20501;-74
2022/12/25 13:25:40;;;;;;;15.37;11.30;;;;;;;;;;4975154;28;20435;-74
2022/12/25 13:28:31;;;;;;;15.30;9.20;;;;;;;;;;4972898;28;20478;-74
2022/12/25 13:31:21;;;;;;;13.00;9.60;;;;;;;;;;4975274;28;20443;-74
2022/12/25 13:34:18;;;;;;;11.27;8.43;;;;;;;;;;4962913;28;20450;-74
2022/12/25 13:37:08;;;;;;;13.27;9.17;;;;;;;;;;4970292;28;20458;-74
2022/12/25 13:39:57;;;;;;;18.37;9.30;;;;;;;;;;4958853;28;20482;-74
2022/12/25 13:42:46;;;;;;;12.53;10.23;;;;;;;;;;4962333;28;20836;-74
2022/12/25 13:45:36;;;;;;;13.40;8.90;;;;;;;;;;4965683;28;20448;-74
2022/12/25 13:48:25;;;;;;;12.53;9.37;;;;;;;;;;4965113;28;20558;-74
2022/12/25 13:51:15;;;;;;;13.37;8.73;;;;;;;;;;4969991;28;20466;-74
2022/12/25 13:54:04;;;;;;;14.77;8.60;;;;;;;;;;4969893;28;20450;-74
2022/12/25 13:56:54;;;;;;;13.03;8.60;;;;;;;;;;4966906;28;20455;-74
2022/12/25 13:59:44;;;;;;;11.20;8.33;;;;;;;;;;4968310;28;20475;-74
2022/12/25 14:02:36;;;;;;;12.40;8.50;;;;;;;;;;4967224;28;20473;-74
2022/12/25 14:05:27;;;;;;;12.87;9.00;;;;;;;;;;4971875;28;20967;-74
2022/12/25 14:08:16;;;;;;;13.97;8.57;;;;;;;;;;4972562;28;20482;-74
2022/12/25 14:11:06;;;;;;;14.30;8.90;;;;;;;;;;4969419;28;21112;-74
2022/12/25 14:14:04;;;;;;;14.10;8.50;;;;;;;;;;4973535;28;20462;-74
2022/12/25 14:16:55;;;;;;;13.70;8.40;;;;;;;;;;4973672;28;20473;-74
2022/12/25 14:19:45;;;;;;;13.17;9.13;;;;;;;;;;4966235;28;21079;-74
2022/12/25 14:22:34;;;;;;;15.20;8.40;;;;;;;;;;4966965;28;20822;-74
2022/12/25 14:25:29;;;;;;;11.83;8.13;;;;;;;;;;4971330;28;20533;-74
2022/12/25 14:28:19;;;;;;;16.53;8.03;;;;;;;;;;4960962;28;20471;-74
2022/12/25 14:31:12;;;;;;;16.00;9.43;;;;;;;;;;4972045;28;20478;-74
2022/12/25 14:34:02;;;;;;;16.50;7.93;;;;;;;;;;4964014;28;20498;-74
2022/12/25 14:36:52;;;;;;;18.87;9.00;;;;;;;;;;4971672;28;20451;-74
2022/12/25 14:39:41;;;;;;;13.37;8.43;;;;;;;;;;4971189;28;20474;-74
2022/12/25 14:42:31;;;;;;;13.93;9.27;;;;;;;;;;4959625;28;20474;-74
2022/12/25 14:45:26;;;;;;;16.47;8.57;;;;;;;;;;4982238;28;20514;-74
2022/12/25 14:48:17;;;;;;;14.73;8.00;;;;;;;;;;4990758;28;20850;-74
2022/12/25 14:51:16;;;;;;;17.03;8.53;;;;;;;;;;4997801;28;20461;-74
2022/12/25 14:54:14;;;;;;;13.47;8.27;;;;;;;;;;4998463;28;20465;-73
2022/12/25 14:57:03;;;;;;;14.47;7.80;;;;;;;;;;4984595;28;20449;-73
2022/12/25 14:59:57;;;;;;;11.93;8.40;;;;;;;;;;4993130;28;20508;-73
2022/12/25 15:02:46;;;;;;;14.73;8.73;;;;;;;;;;4998453;28;20837;-73
2022/12/25 15:05:36;;;;;;;12.37;8.10;;;;;;;;;;4988713;28;20450;-73
2022/12/25 15:08:26;;;;;;;13.17;8.03;;;;;;;;;;4988282;28;20474;-74
2022/12/25 15:11:16;;;;;;;11.20;7.63;;;;;;;;;;4992067;28;20454;-73
2022/12/25 15:14:04;;;;;;;15.30;7.90;;;;;;;;;;4982721;28;20866;-74
2022/12/25 15:16:54;;;;;;;13.43;7.53;;;;;;;;;;4985557;28;20913;-73
2022/12/25 15:19:43;;;;;;;11.93;7.60;;;;;;;;;;4987729;28;20518;-73
2022/12/25 15:22:36;;;;;;;11.47;8.67;;;;;;;;;;4977981;28;20946;-74
2022/12/25 15:25:46;;;;;;;10.97;7.33;;;;;;;;;;4986317;28;20879;-73
2022/12/25 15:28:36;;;;;;;10.87;7.40;;;;;;;;;;4987281;28;20993;-74
2022/12/25 15:31:25;;;;;;;10.67;7.30;;;;;;;;;;4993969;28;20806;-73
2022/12/25 15:34:16;;;;;;;11.17;7.60;;;;;;;;;;4982549;28;20477;-74
2022/12/25 15:37:07;;;;;;;11.43;8.13;;;;;;;;;;4982543;28;21044;-73
2022/12/25 15:39:56;;;;;;;8.93;6.77;;;;;;;;;;4985350;28;20501;-73
2022/12/25 15:42:45;;;;;;;11.90;7.87;;;;;;;;;;4988444;28;20545;-73
2022/12/25 15:45:37;;;;;;;10.90;8.37;;;;;;;;;;4984405;28;20445;-73
2022/12/25 15:48:26;;;;;;;15.27;8.67;;;;;;;;;;4982608;28;20500;-74
2022/12/25 15:51:14;;;;;;;13.93;8.07;;;;;;;;;;4993031;28;20458;-74
2022/12/25 15:54:03;;;;;;;11.40;7.90;;;;;;;;;;4985289;28;20488;-73
2022/12/25 15:56:52;;;;;;;11.97;7.90;;;;;;;;;;4999290;28;20488;-74
2022/12/25 15:59:41;;;;;;;14.03;8.20;;;;;;;;;;4986457;28;20475;-74
2022/12/25 16:02:31;;;;;;;13.40;8.23;;;;;;;;;;4983521;28;21017;-73
2022/12/25 16:05:20;;;;;;;10.20;8.37;;;;;;;;;;4980833;28;20471;-74
2022/12/25 16:08:09;;;;;;;12.60;8.87;;;;;;;;;;4985282;28;20556;-73
2022/12/25 16:11:01;;;;;;;13.73;8.53;;;;;;;;;;4986619;28;20973;-73
2022/12/25 16:13:49;;;;;;;16.10;9.00;;;;;;;;;;4977082;28;20492;-75
2022/12/25 16:16:38;;;;;;;11.97;8.30;;;;;;;;;;4981366;28;20521;-73
2022/12/25 16:19:29;;;;;;;14.43;9.40;;;;;;;;;;4989522;28;21033;-76
2022/12/25 16:22:20;;;;;;;13.93;9.20;;;;;;;;;;4975250;28;20447;-74
2022/12/25 16:25:13;;;;;;;14.37;9.00;;;;;;;;;;4989408;28;21053;-73
2022/12/25 16:28:02;;;;;;;14.30;9.03;;;;;;;;;;4998080;28;20532;-75
2022/12/25 16:30:51;;;;;;;12.97;8.83;;;;;;;;;;4977792;28;20462;-73
2022/12/25 16:33:40;;;;;;;16.90;9.93;;;;;;;;;;5004197;28;20501;-73
2022/12/25 16:36:30;;;;;;;14.67;9.10;;;;;;;;;;4990329;28;20579;-72
2022/12/25 16:39:18;;;;;;;14.43;9.00;;;;;;;;;;4991024;28;20486;-72
2022/12/25 16:42:07;;;;;;;11.70;9.47;;;;;;;;;;4989858;28;20446;-74
2022/12/25 16:44:56;;;;;;;15.27;10.40;;;;;;;;;;5003984;28;21008;-74
2022/12/25 16:47:45;;;;;;;11.17;8.83;;;;;;;;;;4993178;28;20821;-74
2022/12/25 16:50:33;;;;;;;12.77;8.60;;;;;;;;;;4978201;28;20454;-74
2022/12/25 16:53:23;;;;;;;11.37;8.70;;;;;;;;;;4991204;28;20465;-74
2022/12/25 16:56:13;;;;;;;13.27;9.57;;;;;;;;;;4975234;28;20486;-75
2022/12/25 16:59:02;;;;;;;14.63;9.53;;;;;;;;;;4984219;28;20584;-75
2022/12/25 17:01:50;;;;;;;12.97;8.93;;;;;;;;;;4983886;28;20463;-74
2022/12/25 17:04:39;;;;;;;13.83;10.30;;;;;;;;;;4985047;28;20556;-73
2022/12/25 17:07:28;;;;;;;15.47;9.57;;;;;;;;;;4977729;28;20471;-74
2022/12/25 17:10:18;;;;;;;12.03;10.60;;;;;;;;;;4987941;28;20482;-75
2022/12/25 17:13:07;;;;;;;13.00;9.80;;;;;;;;;;4984394;28;20989;-74
2022/12/25 17:15:55;;;;;;;12.90;9.33;;;;;;;;;;4981355;28;20471;-74
2022/12/25 17:18:44;;;;;;;13.87;10.27;;;;;;;;;;4982951;28;20582;-74
2022/12/25 17:21:33;;;;;;;11.53;9.83;;;;;;;;;;4985573;28;20456;-74
2022/12/25 17:24:22;;;;;;;12.17;9.93;;;;;;;;;;4973322;28;20864;-73
2022/12/25 17:27:12;;;;;;;13.30;9.70;;;;;;;;;;4995766;28;21079;-74
2022/12/25 17:30:00;;;;;;;14.63;10.60;;;;;;;;;;4968395;28;20478;-75
2022/12/25 17:32:50;;;;;;;13.03;9.90;;;;;;;;;;4989842;28;20458;-75
2022/12/25 17:35:40;;;;;;;15.50;10.83;;;;;;;;;;4985001;28;20457;-74
2022/12/25 17:38:30;;;;;;;13.60;10.37;;;;;;;;;;4982314;28;20471;-74
2022/12/25 17:41:19;;;;;;;12.57;10.80;;;;;;;;;;5008106;28;20464;-74
2022/12/25 17:44:10;;;;;;;14.37;11.47;;;;;;;;;;5005489;28;20481;-76
2022/12/25 17:47:00;;;;;;;13.17;9.67;;;;;;;;;;4995156;28;20479;-74
2022/12/25 17:49:48;;;;;;;10.80;9.70;;;;;;;;;;4975307;28;20489;-74
2022/12/25 17:52:37;;;;;;;13.07;10.90;;;;;;;;;;4979569;28;20442;-74
2022/12/25 17:55:32;;;;;;;15.57;10.33;;;;;;;;;;4985650;28;20560;-73
2022/12/25 17:58:21;;;;;;;12.80;10.57;;;;;;;;;;4981487;28;20466;-73
2022/12/25 18:01:12;;;;;;;12.20;10.57;;;;;;;;;;4982628;28;20462;-74
2022/12/25 18:04:02;;;;;;;12.47;10.47;;;;;;;;;;4987405;28;20471;-74
2022/12/25 18:06:51;;;;;;;12.03;10.23;;;;;;;;;;4975135;28;20458;-74
2022/12/25 18:09:39;;;;;;;12.00;9.87;;;;;;;;;;4974396;28;20497;-74
2022/12/25 18:12:28;;;;;;;11.70;10.10;;;;;;;;;;4998149;28;20450;-74
2022/12/25 18:15:16;;;;;;;11.83;10.40;;;;;;;;;;4981790;28;20457;-73
2022/12/25 18:18:07;;;;;;;13.50;10.70;;;;;;;;;;4984177;28;20460;-73
2022/12/25 18:20:55;;;;;;;13.10;10.13;;;;;;;;;;4980413;28;20449;-73
2022/12/25 18:23:45;;;;;;;12.87;10.97;;;;;;;;;;4981356;28;20488;-74
2022/12/25 18:26:33;;;;;;;13.80;11.80;;;;;;;;;;4983102;28;20464;-74
2022/12/25 18:29:22;;;;;;;13.57;10.83;;;;;;;;;;4985490;28;20470;-74
2022/12/25 18:32:11;;;;;;;11.63;9.87;;;;;;;;;;4978057;28;20460;-73